createdAt,value
2023-03-08T00:02:23.226Z,0.22
2023-03-08T00:06:27.644Z,0.22
2023-03-08T00:10:30.460Z,0.24
2023-03-08T00:14:33.288Z,0.24
2023-03-08T00:18:37.546Z,0.24
2023-03-08T00:22:41.768Z,0.25
2023-03-08T00:26:44.900Z,0.22
2023-03-08T00:30:55.522Z,0.20
2023-03-08T00:34:59.843Z,0.16
2023-03-08T00:39:02.698Z,0.17
2023-03-08T00:43:06.716Z,0.18
2023-03-08T00:47:10.307Z,0.19
2023-03-08T00:51:15.565Z,0.23
2023-03-08T00:55:18.428Z,0.24
2023-03-08T00:59:23.303Z,0.25
2023-03-08T01:03:27.097Z,0.24
2023-03-08T01:07:32.892Z,0.24
2023-03-08T01:11:37.145Z,0.22
2023-03-08T01:15:40.134Z,0.16
2023-03-08T01:19:42.940Z,0.13
2023-03-08T01:23:47.465Z,0.06
2023-03-08T01:27:51.697Z,0.05
2023-03-08T01:31:54.631Z,0.07
2023-03-08T01:35:58.598Z,0.07
2023-03-08T01:40:04.974Z,0.06
2023-03-08T01:44:11.586Z,0.08
2023-03-08T01:48:17.005Z,0.06
2023-03-08T01:52:40.543Z,0.05
2023-03-08T01:56:48.347Z,-0.03
2023-03-08T02:00:51.549Z,-0.01
2023-03-08T02:04:54.691Z,-0.01
2023-03-08T02:08:57.677Z,-0.01
2023-03-08T02:13:02.359Z,0.02
2023-03-08T02:17:05.780Z,0.07
2023-03-08T02:21:08.546Z,0.04
2023-03-08T02:25:16.615Z,0.04
2023-03-08T02:29:19.436Z,0.08
2023-03-08T02:33:23.188Z,0.15
2023-03-08T02:37:26.109Z,0.21
2023-03-08T02:41:31.381Z,0.24
2023-03-08T02:45:34.622Z,0.26
2023-03-08T02:49:37.581Z,0.29
2023-03-08T02:53:40.569Z,0.26
2023-03-08T02:57:44.767Z,0.28
2023-03-08T03:01:47.713Z,0.22
2023-03-08T03:05:50.510Z,0.20
2023-03-08T03:09:58.479Z,0.16
2023-03-08T03:14:03.334Z,0.08
2023-03-08T03:18:11.228Z,0.04
2023-03-08T03:22:14.216Z,0.06
2023-03-08T03:26:20.070Z,0.05
2023-03-08T03:30:27.695Z,0.05
2023-03-08T03:34:30.856Z,0.12
2023-03-08T03:38:34.751Z,0.19
2023-03-08T03:42:38.540Z,0.23
2023-03-08T03:46:47.608Z,0.21
2023-03-08T03:50:57.858Z,0.25
2023-03-08T03:55:01.143Z,0.25
2023-03-08T03:59:04.053Z,0.25
2023-03-08T04:03:09.458Z,0.26
2023-03-08T04:07:13.895Z,0.33
2023-03-08T04:11:27.050Z,0.29
2023-03-08T04:15:30.274Z,0.35
2023-03-08T04:19:38.060Z,0.35
2023-03-08T04:23:42.242Z,0.31
2023-03-08T04:27:45.850Z,0.34
2023-03-08T04:31:49.633Z,0.35
2023-03-08T04:35:56.765Z,0.35
2023-03-08T04:40:01.344Z,0.37
2023-03-08T04:44:07.507Z,0.42
2023-03-08T04:48:17.710Z,0.53
2023-03-08T04:52:23.502Z,0.65
2023-03-08T04:56:26.314Z,0.73
2023-03-08T05:00:30.016Z,0.74
2023-03-08T05:04:33.258Z,0.73
2023-03-08T05:08:38.303Z,0.74
2023-03-08T05:12:42.271Z,0.68
2023-03-08T05:16:45.520Z,0.59
2023-03-08T05:20:54.640Z,0.61
2023-03-08T05:24:58.912Z,0.65
2023-03-08T05:29:03.401Z,0.64
2023-03-08T05:33:07.346Z,0.63
2023-03-08T05:37:10.453Z,0.59
2023-03-08T05:41:17.744Z,0.61
2023-03-08T05:45:25.098Z,0.60
2023-03-08T05:49:29.465Z,0.68
2023-03-08T05:53:33.095Z,0.71
2023-03-08T05:57:37.538Z,0.74
2023-03-08T06:01:41.329Z,0.78
2023-03-08T06:06:01.320Z,0.78
2023-03-08T06:10:04.744Z,0.73
2023-03-08T06:14:09.002Z,0.63
2023-03-08T06:18:12.414Z,0.58
2023-03-08T06:22:17.290Z,0.53
2023-03-08T06:26:21.690Z,0.51
2023-03-08T06:30:25.944Z,0.59
2023-03-08T06:34:29.960Z,0.59
2023-03-08T06:38:35.490Z,0.55
2023-03-08T06:42:41.600Z,0.60
2023-03-08T06:46:49.380Z,0.59
2023-03-08T06:50:52.330Z,0.62
2023-03-08T06:54:55.234Z,0.52
2023-03-08T06:58:58.632Z,0.54
2023-03-08T07:03:02.867Z,0.50
2023-03-08T07:07:07.829Z,0.54
2023-03-08T07:11:11.655Z,0.56
2023-03-08T07:15:15.796Z,0.49
2023-03-08T07:19:20.067Z,0.58
2023-03-08T07:23:22.905Z,0.61
2023-03-08T07:27:25.967Z,0.64
2023-03-08T07:31:29.034Z,0.64
2023-03-08T07:35:33.355Z,0.65
2023-03-08T07:39:36.164Z,0.66
2023-03-08T07:43:39.094Z,0.67
2023-03-08T07:47:51.156Z,0.71
2023-03-08T07:51:55.891Z,0.65
2023-03-08T07:56:00.038Z,0.76
2023-03-08T08:00:07.373Z,0.85
2023-03-08T08:04:14.861Z,1.01
2023-03-08T08:08:19.162Z,1.15
2023-03-08T08:12:23.477Z,1.26
2023-03-08T08:16:26.783Z,1.36
2023-03-08T08:20:29.634Z,1.46
2023-03-08T08:24:33.916Z,1.54
2023-03-08T08:28:37.936Z,1.62
2023-03-08T08:32:41.032Z,1.64
2023-03-08T08:36:43.864Z,1.67
2023-03-08T08:40:48.194Z,1.79
2023-03-08T08:44:51.159Z,1.87
2023-03-08T08:48:53.964Z,1.94
2023-03-08T08:52:57.760Z,1.96
2023-03-08T08:57:02.070Z,2.09
2023-03-08T09:01:05.154Z,2.16
2023-03-08T09:05:08.479Z,2.21
2023-03-08T09:09:11.397Z,2.28
2023-03-08T09:13:15.721Z,2.25
2023-03-08T09:17:19.265Z,2.29
2023-03-08T09:21:22.070Z,2.36
2023-03-08T09:25:25.330Z,2.43
2023-03-08T09:29:29.484Z,2.55
2023-03-08T09:33:32.469Z,2.67
2023-03-08T09:37:35.341Z,2.72
2023-03-08T09:41:49.369Z,2.75
2023-03-08T09:45:55.831Z,2.86
2023-03-08T09:50:07.512Z,2.95
2023-03-08T09:54:14.902Z,3.07
2023-03-08T09:58:33.012Z,3.14
2023-03-08T10:02:44.944Z,3.18
2023-03-08T10:06:57.384Z,3.29
2023-03-08T10:11:03.502Z,3.37
2023-03-08T10:15:12.175Z,3.34
2023-03-08T10:19:21.208Z,3.38
2023-03-08T10:23:25.865Z,3.42
2023-03-08T10:27:33.163Z,3.46
2023-03-08T10:31:36.086Z,3.47
2023-03-08T10:35:54.178Z,3.61
2023-03-08T10:39:59.744Z,3.67
2023-03-08T10:44:02.611Z,3.66
2023-03-08T10:48:07.022Z,3.65
2023-03-08T10:52:24.917Z,3.77
2023-03-08T10:56:37.991Z,3.89
2023-03-08T11:00:43.768Z,3.86
2023-03-08T11:04:52.615Z,3.84
2023-03-08T11:08:59.871Z,3.91
2023-03-08T11:13:04.040Z,3.92
2023-03-08T11:17:16.940Z,4.13
2023-03-08T11:21:27.821Z,4.26
2023-03-08T11:25:43.243Z,4.25
2023-03-08T11:30:01.148Z,4.24
2023-03-08T11:34:20.238Z,4.34
2023-03-08T11:38:26.401Z,4.50
2023-03-08T11:42:46.395Z,4.51
2023-03-08T11:47:04.446Z,4.44
2023-03-08T11:51:15.283Z,4.47
2023-03-08T11:55:43.647Z,4.61
2023-03-08T11:59:52.733Z,4.65
2023-03-08T12:03:59.082Z,4.72
2023-03-08T12:08:06.599Z,4.70
2023-03-08T12:12:15.486Z,4.69
2023-03-08T12:16:26.127Z,4.71
2023-03-08T12:20:32.918Z,4.74
2023-03-08T12:24:45.606Z,4.69
2023-03-08T12:28:55.043Z,4.69
2023-03-08T12:33:02.457Z,4.71
2023-03-08T12:37:06.171Z,4.79
2023-03-08T12:41:23.644Z,4.68
2023-03-08T12:45:30.890Z,4.64
2023-03-08T12:49:38.716Z,4.54
2023-03-08T12:53:44.593Z,4.46
2023-03-08T12:57:50.984Z,4.54
2023-03-08T13:02:02.539Z,4.51
2023-03-08T13:06:34.627Z,4.41
2023-03-08T13:10:40.281Z,4.33
2023-03-08T13:14:45.171Z,4.27
2023-03-08T13:18:53.387Z,4.21
2023-03-08T13:23:19.444Z,4.27
2023-03-08T13:27:32.392Z,4.41
2023-03-08T13:31:35.314Z,4.46
2023-03-08T13:35:38.151Z,4.46
2023-03-08T13:39:42.353Z,4.49
2023-03-08T13:43:45.181Z,4.38
2023-03-08T13:47:48.590Z,4.35
2023-03-08T13:51:54.941Z,4.31
2023-03-08T13:56:02.613Z,4.13
2023-03-08T14:00:24.885Z,4.22
2023-03-08T14:04:29.886Z,4.27
2023-03-08T14:08:33.017Z,4.39
2023-03-08T14:12:38.078Z,4.44
2023-03-08T14:16:43.201Z,4.38
2023-03-08T14:20:46.770Z,4.32
2023-03-08T14:24:54.163Z,4.36
2023-03-08T14:29:13.200Z,4.52
2023-03-08T14:33:28.252Z,4.58
2023-03-08T14:37:34.585Z,4.51
2023-03-08T14:41:38.308Z,4.56
2023-03-08T14:45:52.796Z,4.40
2023-03-08T14:49:57.222Z,4.31
2023-03-08T14:54:02.600Z,4.24
2023-03-08T14:58:11.391Z,4.24
2023-03-08T15:02:18.028Z,4.28
2023-03-08T15:06:23.824Z,4.26
2023-03-08T15:10:30.367Z,4.15
2023-03-08T15:14:33.236Z,4.15
2023-03-08T15:18:37.496Z,4.18
2023-03-08T15:22:44.968Z,4.18
2023-03-08T15:26:47.752Z,4.20
2023-03-08T15:30:52.762Z,4.11
2023-03-08T15:34:56.975Z,4.08
2023-03-08T15:39:01.308Z,4.14
2023-03-08T15:43:04.132Z,4.08
2023-03-08T15:47:07.387Z,3.87
2023-03-08T15:51:18.445Z,3.80
2023-03-08T15:55:22.128Z,3.77
2023-03-08T15:59:25.788Z,3.74
2023-03-08T16:03:31.009Z,3.70
2023-03-08T16:07:36.715Z,3.64
2023-03-08T16:11:39.625Z,3.63
2023-03-08T16:15:42.433Z,3.62
2023-03-08T16:19:45.579Z,3.60
2023-03-08T16:23:49.773Z,3.51
2023-03-08T16:27:53.120Z,3.44
2023-03-08T16:31:57.169Z,3.34
2023-03-08T16:35:59.994Z,3.36
2023-03-08T16:40:07.187Z,3.36
2023-03-08T16:44:20.223Z,3.33
2023-03-08T16:48:24.092Z,3.24
2023-03-08T16:52:32.782Z,3.09
2023-03-08T16:56:44.665Z,3.03
2023-03-08T17:00:47.951Z,2.93
2023-03-08T17:04:52.089Z,2.88
2023-03-08T17:08:54.945Z,2.79
2023-03-08T17:12:59.141Z,2.78
2023-03-08T17:17:01.931Z,2.76
2023-03-08T17:21:07.345Z,2.67
2023-03-08T17:25:10.596Z,2.59
2023-03-08T17:29:15.297Z,2.57
2023-03-08T17:33:18.105Z,2.51
2023-03-08T17:37:22.959Z,2.51
2023-03-08T17:41:25.804Z,2.46
2023-03-08T17:45:30.290Z,2.51
2023-03-08T17:49:34.107Z,2.47
2023-03-08T17:53:50.140Z,2.43
2023-03-08T17:57:52.991Z,2.40
2023-03-08T18:01:58.156Z,2.37
2023-03-08T18:06:01.120Z,2.37
2023-03-08T18:10:04.144Z,2.31
2023-03-08T18:14:08.155Z,2.30
2023-03-08T18:18:12.284Z,2.34
2023-03-08T18:22:16.135Z,2.28
2023-03-08T18:26:19.604Z,2.30
2023-03-08T18:30:22.603Z,2.28
2023-03-08T18:34:26.944Z,2.28
2023-03-08T18:38:35.789Z,2.31
2023-03-08T18:42:38.745Z,2.28
2023-03-08T18:46:41.671Z,2.25
2023-03-08T18:50:45.953Z,2.22
2023-03-08T18:54:49.590Z,2.18
2023-03-08T18:58:52.579Z,2.16
2023-03-08T19:02:55.475Z,2.10
2023-03-08T19:06:59.714Z,2.10
2023-03-08T19:11:11.304Z,2.08
2023-03-08T19:15:14.360Z,2.06
2023-03-08T19:19:18.125Z,2.06
2023-03-08T19:23:22.364Z,2.02
2023-03-08T19:27:25.538Z,2.03
2023-03-08T19:31:28.542Z,1.98
2023-03-08T19:35:31.795Z,1.88
2023-03-08T19:39:38.014Z,1.89
2023-03-08T19:43:41.135Z,1.88
2023-03-08T19:47:43.936Z,1.90
2023-03-08T19:51:48.094Z,1.89
2023-03-08T19:55:52.945Z,1.90
2023-03-08T19:59:57.730Z,1.82
2023-03-08T20:04:00.763Z,1.78
2023-03-08T20:08:03.681Z,1.76
2023-03-08T20:12:07.998Z,1.69
2023-03-08T20:16:10.868Z,1.68
2023-03-08T20:20:14.065Z,1.61
2023-03-08T20:24:18.427Z,1.61
2023-03-08T20:28:22.644Z,1.60
2023-03-08T20:32:25.585Z,1.66
2023-03-08T20:36:29.432Z,1.64
2023-03-08T20:40:32.222Z,1.69
2023-03-08T20:44:36.398Z,1.75
2023-03-08T20:48:40.952Z,1.73
2023-03-08T20:52:43.752Z,1.66
2023-03-08T20:56:46.525Z,1.72
2023-03-08T21:00:50.735Z,1.76
2023-03-08T21:04:53.569Z,1.72
2023-03-08T21:08:56.709Z,1.71
2023-03-08T21:12:59.662Z,1.74
2023-03-08T21:17:03.834Z,1.74
2023-03-08T21:21:07.150Z,1.81
2023-03-08T21:25:11.053Z,1.84
2023-03-08T21:29:15.652Z,1.82
2023-03-08T21:33:20.081Z,1.75
2023-03-08T21:37:22.929Z,1.67
2023-03-08T21:41:27.198Z,1.68
2023-03-08T21:45:30.067Z,1.72
2023-03-08T21:49:35.099Z,1.74
2023-03-08T21:53:38.333Z,1.76
2023-03-08T21:57:41.523Z,1.82
2023-03-08T22:01:48.105Z,1.82
2023-03-08T22:05:53.807Z,1.82
2023-03-08T22:09:56.631Z,1.74
2023-03-08T22:14:01.990Z,1.77
2023-03-08T22:18:04.864Z,1.76
2023-03-08T22:22:10.375Z,1.82
2023-03-08T22:26:13.247Z,1.83
2023-03-08T22:30:16.378Z,1.80
2023-03-08T22:34:19.137Z,1.80
2023-03-08T22:38:23.319Z,1.75
2023-03-08T22:42:26.269Z,1.73
2023-03-08T22:46:29.049Z,1.75
2023-03-08T22:50:32.197Z,1.76
2023-03-08T22:54:37.141Z,1.74
2023-03-08T22:58:39.942Z,1.72
2023-03-08T23:02:43.125Z,1.77
2023-03-08T23:06:46.041Z,1.77
2023-03-08T23:10:50.315Z,1.72
2023-03-08T23:14:53.071Z,1.65
2023-03-08T23:18:56.274Z,1.61
2023-03-08T23:22:59.136Z,1.59
2023-03-08T23:27:04.231Z,1.57
2023-03-08T23:31:10.371Z,1.52
2023-03-08T23:35:13.661Z,1.55
2023-03-08T23:39:16.496Z,1.60
2023-03-08T23:43:20.703Z,1.63
2023-03-08T23:47:23.490Z,1.62
2023-03-08T23:51:29.034Z,1.63
2023-03-08T23:55:32.005Z,1.58
2023-03-08T23:59:36.454Z,1.60
